createdAt,value
2022-09-20T00:00:43.563Z,99.71
2022-09-20T00:01:43.524Z,99.71
2022-09-20T00:02:43.441Z,99.80
2022-09-20T00:03:43.430Z,99.99
2022-09-20T00:04:43.429Z,99.99
2022-09-20T00:05:43.424Z,99.99
2022-09-20T00:06:43.396Z,99.99
2022-09-20T00:07:43.381Z,99.99
2022-09-20T00:08:43.377Z,99.99
2022-09-20T00:09:43.358Z,99.99
2022-09-20T00:10:43.349Z,99.99
2022-09-20T00:11:43.333Z,99.99
2022-09-20T00:12:43.323Z,99.99
2022-09-20T00:13:43.317Z,99.99
2022-09-20T00:14:43.299Z,99.99
2022-09-20T00:15:43.386Z,99.99
2022-09-20T00:16:43.328Z,99.99
2022-09-20T00:17:43.264Z,99.99
2022-09-20T00:18:43.252Z,99.99
2022-09-20T00:19:43.240Z,99.99
2022-09-20T00:20:43.230Z,99.99
2022-09-20T00:21:43.235Z,99.99
2022-09-20T00:22:43.204Z,99.99
2022-09-20T00:23:43.189Z,99.99
2022-09-20T00:24:48.226Z,99.99
2022-09-20T00:25:43.165Z,99.99
2022-09-20T00:26:43.166Z,99.99
2022-09-20T00:27:43.143Z,99.99
2022-09-20T00:28:43.132Z,99.99
2022-09-20T00:29:43.117Z,99.99
2022-09-20T00:30:43.113Z,99.99
2022-09-20T00:31:43.356Z,99.99
2022-09-20T00:32:43.084Z,99.99
2022-09-20T00:33:43.071Z,99.99
2022-09-20T00:34:43.059Z,99.99
2022-09-20T00:35:43.048Z,99.99
2022-09-20T00:36:43.037Z,99.99
2022-09-20T00:37:43.042Z,99.99
2022-09-20T00:38:43.010Z,99.99
2022-09-20T00:39:42.997Z,99.99
2022-09-20T00:40:43.050Z,99.99
2022-09-20T00:41:42.975Z,99.99
2022-09-20T00:42:42.963Z,99.99
2022-09-20T00:43:42.955Z,99.99
2022-09-20T00:44:42.941Z,99.99
2022-09-20T00:45:42.988Z,99.99
2022-09-20T00:46:42.915Z,99.99
2022-09-20T00:47:42.902Z,99.99
2022-09-20T00:48:42.891Z,99.99
2022-09-20T00:49:42.875Z,99.99
2022-09-20T00:50:42.866Z,99.99
2022-09-20T00:51:42.852Z,99.99
2022-09-20T00:52:42.842Z,99.99
2022-09-20T00:53:42.847Z,99.99
2022-09-20T00:54:42.817Z,99.99
2022-09-20T00:55:42.803Z,99.99
2022-09-20T00:56:42.793Z,99.99
2022-09-20T00:57:42.776Z,99.99
2022-09-20T00:58:42.768Z,99.99
2022-09-20T00:59:42.755Z,99.99
2022-09-20T01:00:42.817Z,99.99
2022-09-20T01:01:42.821Z,99.99
2022-09-20T01:02:42.785Z,99.99
2022-09-20T01:03:42.706Z,99.99
2022-09-20T01:04:42.694Z,99.99
2022-09-20T01:05:42.680Z,99.99
2022-09-20T01:06:42.671Z,99.99
2022-09-20T01:07:42.656Z,99.99
2022-09-20T01:08:42.645Z,99.99
2022-09-20T01:09:42.650Z,99.99
2022-09-20T01:10:42.622Z,99.99
2022-09-20T01:11:42.620Z,99.99
2022-09-20T01:12:42.596Z,99.99
2022-09-20T01:13:42.583Z,99.99
2022-09-20T01:14:42.572Z,99.99
2022-09-20T01:15:42.608Z,99.99
2022-09-20T01:16:42.603Z,99.99
2022-09-20T01:17:42.533Z,99.99
2022-09-20T01:18:42.523Z,99.99
2022-09-20T01:19:42.508Z,99.99
2022-09-20T01:20:42.499Z,99.99
2022-09-20T01:21:42.483Z,99.99
2022-09-20T01:22:42.472Z,99.99
2022-09-20T01:23:42.459Z,99.99
2022-09-20T01:24:42.449Z,99.99
2022-09-20T01:25:42.455Z,99.99
2022-09-20T01:26:42.424Z,99.99
2022-09-20T01:27:42.410Z,99.99
2022-09-20T01:28:42.405Z,99.99
2022-09-20T01:29:42.386Z,99.99
2022-09-20T01:30:42.376Z,99.99
2022-09-20T01:31:42.398Z,99.99
2022-09-20T01:32:42.350Z,99.99
2022-09-20T01:33:42.335Z,99.99
2022-09-20T01:34:42.324Z,99.99
2022-09-20T01:35:42.310Z,99.99
2022-09-20T01:36:42.299Z,99.99
2022-09-20T01:37:42.284Z,99.99
2022-09-20T01:38:42.274Z,99.99
2022-09-20T01:39:42.259Z,99.99
2022-09-20T01:40:42.289Z,99.99
2022-09-20T01:41:42.257Z,99.99
2022-09-20T01:42:42.226Z,99.99
2022-09-20T01:43:42.211Z,99.99
2022-09-20T01:44:42.200Z,99.99
2022-09-20T01:45:42.245Z,99.99
2022-09-20T01:46:42.175Z,99.99
2022-09-20T01:47:42.161Z,99.99
2022-09-20T01:48:42.150Z,99.99
2022-09-20T01:49:42.134Z,99.99
2022-09-20T01:50:42.128Z,99.99
2022-09-20T01:51:42.109Z,99.99
2022-09-20T01:52:42.100Z,99.99
2022-09-20T01:53:42.088Z,99.99
2022-09-20T01:54:42.074Z,99.99
2022-09-20T01:55:42.060Z,99.99
2022-09-20T01:56:42.050Z,99.99
2022-09-20T01:57:42.053Z,99.99
2022-09-20T01:58:42.023Z,99.99
2022-09-20T01:59:42.009Z,99.99
2022-09-20T02:00:42.033Z,99.99
2022-09-20T02:01:41.983Z,99.99
2022-09-20T02:02:42.044Z,99.99
2022-09-20T02:03:41.966Z,99.99
2022-09-20T02:04:41.948Z,99.99
2022-09-20T02:05:41.932Z,99.99
2022-09-20T02:06:41.922Z,99.99
2022-09-20T02:07:41.908Z,99.99
2022-09-20T02:08:41.899Z,99.99
2022-09-20T02:09:41.882Z,99.99
2022-09-20T02:10:41.869Z,99.99
2022-09-20T02:11:41.858Z,99.99
2022-09-20T02:12:41.847Z,99.99
2022-09-20T02:13:41.849Z,99.99
2022-09-20T02:14:41.829Z,99.99
2022-09-20T02:15:41.806Z,99.99
2022-09-20T02:16:41.857Z,99.99
2022-09-20T02:17:41.781Z,99.99
2022-09-20T02:18:41.769Z,99.99
2022-09-20T02:19:41.755Z,99.99
2022-09-20T02:20:41.744Z,99.99
2022-09-20T02:21:41.734Z,99.99
2022-09-20T02:22:41.719Z,99.99
2022-09-20T02:23:41.703Z,99.99
2022-09-20T02:24:41.693Z,99.99
2022-09-20T02:25:41.678Z,99.99
2022-09-20T02:26:41.667Z,99.99
2022-09-20T02:27:41.652Z,99.99
2022-09-20T02:28:41.642Z,99.99
2022-09-20T02:29:41.646Z,99.99
2022-09-20T02:30:41.618Z,99.99
2022-09-20T02:31:41.638Z,99.99
2022-09-20T02:32:41.592Z,99.99
2022-09-20T02:33:41.575Z,99.99
2022-09-20T02:34:41.563Z,99.99
2022-09-20T02:35:41.549Z,99.99
2022-09-20T02:36:41.539Z,99.99
2022-09-20T02:37:41.525Z,99.99
2022-09-20T02:38:41.513Z,99.99
2022-09-20T02:39:41.497Z,99.99
2022-09-20T02:40:41.579Z,99.99
2022-09-20T02:41:41.482Z,99.99
2022-09-20T02:42:41.466Z,99.99
2022-09-20T02:43:41.455Z,99.99
2022-09-20T02:44:41.441Z,99.99
2022-09-20T02:45:41.561Z,99.99
2022-09-20T02:46:41.408Z,99.99
2022-09-20T02:47:41.395Z,99.99
2022-09-20T02:48:41.384Z,99.99
2022-09-20T02:49:41.368Z,99.99
2022-09-20T02:50:41.361Z,99.99
2022-09-20T02:51:41.347Z,99.99
2022-09-20T02:52:41.332Z,99.99
2022-09-20T02:53:41.316Z,99.99
2022-09-20T02:54:41.305Z,99.99
2022-09-20T02:55:41.290Z,99.99
2022-09-20T02:56:41.281Z,99.99
2022-09-20T02:57:41.265Z,99.99
2022-09-20T02:58:41.252Z,99.99
2022-09-20T02:59:41.238Z,99.99
2022-09-20T03:00:41.228Z,99.99
2022-09-20T03:01:41.332Z,99.99
2022-09-20T03:02:41.299Z,99.99
2022-09-20T03:03:41.189Z,99.99
2022-09-20T03:04:41.175Z,99.99
2022-09-20T03:05:41.158Z,99.99
2022-09-20T03:06:41.148Z,99.99
2022-09-20T03:07:41.134Z,99.99
2022-09-20T03:08:41.125Z,99.99
2022-09-20T03:09:41.106Z,99.99
2022-09-20T03:10:41.324Z,99.99
2022-09-20T03:11:41.082Z,99.99
2022-09-20T03:12:41.071Z,99.99
2022-09-20T03:13:41.167Z,99.99
2022-09-20T03:14:41.043Z,99.99
2022-09-20T03:15:41.029Z,99.99
2022-09-20T03:16:41.077Z,99.99
2022-09-20T03:17:41.026Z,99.99
2022-09-20T03:18:40.992Z,99.99
2022-09-20T03:19:40.977Z,99.99
2022-09-20T03:20:40.965Z,99.99
2022-09-20T03:21:40.952Z,99.99
2022-09-20T03:22:40.939Z,99.99
2022-09-20T03:23:40.923Z,99.99
2022-09-20T03:24:40.911Z,99.99
2022-09-20T03:25:40.897Z,99.99
2022-09-20T03:26:40.888Z,99.99
2022-09-20T03:27:40.872Z,99.99
2022-09-20T03:28:40.862Z,99.99
2022-09-20T03:29:40.844Z,99.99
2022-09-20T03:30:40.834Z,99.99
2022-09-20T03:31:40.861Z,99.99
2022-09-20T03:32:40.811Z,99.99
2022-09-20T03:33:40.814Z,99.99
2022-09-20T03:34:40.784Z,99.99
2022-09-20T03:35:40.765Z,99.99
2022-09-20T03:36:40.754Z,99.99
2022-09-20T03:37:40.740Z,99.99
2022-09-20T03:38:40.729Z,99.99
2022-09-20T03:40:44.137Z,99.99
2022-09-20T03:41:40.687Z,99.99
2022-09-20T03:42:40.672Z,99.99
2022-09-20T03:43:40.663Z,99.99
2022-09-20T03:44:40.645Z,99.99
2022-09-20T03:45:40.681Z,99.99
2022-09-20T03:46:40.619Z,99.99
2022-09-20T03:47:40.608Z,99.99
2022-09-20T03:48:40.592Z,99.99
2022-09-20T03:49:40.600Z,99.99
2022-09-20T03:50:40.565Z,99.99
2022-09-20T03:51:40.560Z,99.99
2022-09-20T03:52:40.538Z,99.99
2022-09-20T03:53:40.527Z,99.99
2022-09-20T03:54:40.512Z,99.99
2022-09-20T03:55:40.500Z,99.99
2022-09-20T03:56:40.486Z,99.99
2022-09-20T03:57:40.476Z,99.99
2022-09-20T03:58:40.469Z,99.99
2022-09-20T03:59:40.448Z,99.99
2022-09-20T04:00:40.613Z,99.99
2022-09-20T04:01:40.486Z,99.99
2022-09-20T04:02:40.481Z,99.99
2022-09-20T04:03:40.395Z,99.99
2022-09-20T04:04:40.380Z,99.99
2022-09-20T04:05:40.388Z,99.99
2022-09-20T04:06:40.352Z,99.99
2022-09-20T04:07:40.341Z,99.99
2022-09-20T04:08:40.573Z,99.99
2022-09-20T04:09:40.312Z,99.99
2022-09-20T04:10:40.313Z,99.99
2022-09-20T04:11:40.288Z,99.99
2022-09-20T04:12:40.273Z,99.99
2022-09-20T04:13:40.259Z,99.99
2022-09-20T04:14:40.247Z,99.99
2022-09-20T04:15:40.233Z,99.99
2022-09-20T04:16:40.303Z,99.99
2022-09-20T04:17:40.208Z,99.99
2022-09-20T04:18:40.193Z,99.99
2022-09-20T04:19:40.177Z,99.99
2022-09-20T04:20:40.167Z,99.99
2022-09-20T04:21:40.167Z,99.99
2022-09-20T04:22:40.139Z,99.99
2022-09-20T04:23:40.123Z,99.99
2022-09-20T04:24:40.114Z,99.99
2022-09-20T04:25:43.795Z,99.99
2022-09-20T04:26:40.085Z,99.99
2022-09-20T04:27:40.170Z,99.99
2022-09-20T04:28:40.057Z,99.99
2022-09-20T04:29:40.042Z,99.99
2022-09-20T04:30:40.033Z,99.99
2022-09-20T04:31:40.105Z,99.99
2022-09-20T04:32:40.005Z,99.99
2022-09-20T04:33:39.989Z,99.99
2022-09-20T04:34:39.977Z,99.99
2022-09-20T04:35:39.963Z,99.99
2022-09-20T04:36:39.953Z,99.99
2022-09-20T04:37:39.953Z,99.99
2022-09-20T04:38:39.924Z,99.99
2022-09-20T04:39:39.907Z,99.99
2022-09-20T04:40:39.956Z,99.99
2022-09-20T04:41:39.880Z,99.99
2022-09-20T04:42:39.869Z,99.99
2022-09-20T04:43:39.853Z,99.99
2022-09-20T04:44:39.845Z,99.99
2022-09-20T04:45:39.888Z,99.99
2022-09-20T04:46:39.814Z,99.99
2022-09-20T04:47:39.812Z,99.99
2022-09-20T04:48:39.789Z,99.99
2022-09-20T04:49:39.773Z,99.99
2022-09-20T04:50:39.774Z,99.99
2022-09-20T04:51:39.747Z,99.99
2022-09-20T04:52:39.735Z,99.99
2022-09-20T04:53:39.736Z,99.99
2022-09-20T04:54:39.707Z,99.99
2022-09-20T04:55:39.691Z,99.99
2022-09-20T04:56:39.681Z,99.99
2022-09-20T04:57:39.667Z,99.99
2022-09-20T04:58:39.652Z,99.99
2022-09-20T04:59:39.640Z,99.99
2022-09-20T05:00:39.665Z,99.99
2022-09-20T05:01:39.673Z,99.99
2022-09-20T05:02:39.701Z,99.99
2022-09-20T05:03:39.583Z,99.99
2022-09-20T05:04:39.570Z,99.99
2022-09-20T05:05:39.554Z,99.99
2022-09-20T05:06:39.543Z,99.99
2022-09-20T05:07:39.528Z,99.99
2022-09-20T05:08:39.516Z,99.99
2022-09-20T05:09:39.522Z,99.99
2022-09-20T05:10:39.488Z,99.99
2022-09-20T05:11:39.476Z,99.99
2022-09-20T05:12:39.464Z,99.99
2022-09-20T05:13:39.446Z,99.99
2022-09-20T05:14:39.435Z,99.99
2022-09-20T05:15:39.419Z,99.99
2022-09-20T05:16:41.972Z,99.99
2022-09-20T05:17:39.599Z,99.99
2022-09-20T05:18:39.379Z,99.99
2022-09-20T05:19:39.364Z,99.99
2022-09-20T05:20:39.355Z,99.99
2022-09-20T05:21:39.338Z,99.99
2022-09-20T05:22:39.325Z,99.99
2022-09-20T05:23:39.322Z,99.99
2022-09-20T05:24:39.299Z,99.99
2022-09-20T05:25:39.302Z,99.99
2022-09-20T05:26:39.271Z,99.99
2022-09-20T05:27:39.359Z,99.99
2022-09-20T05:28:39.244Z,99.99
2022-09-20T05:29:39.227Z,99.99
2022-09-20T05:30:39.216Z,99.99
2022-09-20T05:31:39.285Z,99.99
2022-09-20T05:32:39.192Z,99.99
2022-09-20T05:33:39.178Z,99.99
2022-09-20T05:34:39.162Z,99.99
2022-09-20T05:35:39.149Z,99.99
2022-09-20T05:36:39.136Z,99.99
2022-09-20T05:37:39.119Z,99.99
2022-09-20T05:38:39.112Z,99.99
2022-09-20T05:39:39.092Z,99.99
2022-09-20T05:40:39.119Z,99.99
2022-09-20T05:41:39.080Z,99.99
2022-09-20T05:42:39.053Z,99.99
2022-09-20T05:43:39.048Z,99.99
2022-09-20T05:44:39.027Z,99.99
2022-09-20T05:45:39.029Z,99.99
2022-09-20T05:46:39.004Z,99.99
2022-09-20T05:47:38.982Z,99.99
2022-09-20T05:48:38.971Z,99.99
2022-09-20T05:49:38.955Z,99.99
2022-09-20T05:50:38.945Z,99.99
2022-09-20T05:51:38.929Z,99.99
2022-09-20T05:52:38.917Z,99.99
2022-09-20T05:53:38.901Z,99.99
2022-09-20T05:54:38.950Z,99.99
2022-09-20T05:55:38.876Z,99.99
2022-09-20T05:56:38.864Z,99.99
2022-09-20T05:57:38.865Z,99.99
2022-09-20T05:58:38.855Z,99.99
2022-09-20T05:59:38.821Z,99.99
2022-09-20T06:00:38.807Z,99.99
2022-09-20T06:01:38.791Z,99.99
2022-09-20T06:02:38.855Z,99.99
2022-09-20T06:03:38.764Z,99.99
2022-09-20T06:04:38.753Z,99.99
2022-09-20T06:05:38.748Z,99.99
2022-09-20T06:06:38.739Z,99.99
2022-09-20T06:07:38.712Z,99.99
2022-09-20T06:08:38.860Z,99.99
2022-09-20T06:09:38.683Z,99.99
2022-09-20T06:10:38.681Z,99.99
2022-09-20T06:11:38.655Z,99.99
2022-09-20T06:12:38.656Z,99.99
2022-09-20T06:13:38.644Z,99.99
2022-09-20T06:14:38.617Z,99.99
2022-09-20T06:15:38.601Z,99.99
2022-09-20T06:16:38.633Z,99.99
2022-09-20T06:17:38.575Z,99.99
2022-09-20T06:18:38.566Z,99.99
2022-09-20T06:19:38.550Z,99.99
2022-09-20T06:20:38.535Z,99.99
2022-09-20T06:21:38.520Z,99.99
2022-09-20T06:22:38.508Z,99.99
2022-09-20T06:23:38.501Z,99.99
2022-09-20T06:24:38.481Z,99.99
2022-09-20T06:25:38.467Z,99.99
2022-09-20T06:26:38.454Z,99.99
2022-09-20T06:27:38.438Z,99.99
2022-09-20T06:28:38.436Z,99.99
2022-09-20T06:29:38.434Z,99.99
2022-09-20T06:30:38.539Z,99.99
2022-09-20T06:31:38.386Z,99.99
2022-09-20T06:32:38.375Z,99.99
2022-09-20T06:33:38.360Z,99.99
2022-09-20T06:34:38.351Z,99.99
2022-09-20T06:35:38.336Z,99.99
2022-09-20T06:36:38.321Z,99.99
2022-09-20T06:37:38.310Z,99.99
2022-09-20T06:38:38.304Z,99.99
2022-09-20T06:39:38.284Z,99.99
2022-09-20T06:40:38.333Z,99.99
2022-09-20T06:41:38.255Z,99.99
2022-09-20T06:42:38.245Z,99.99
2022-09-20T06:43:38.231Z,99.99
2022-09-20T06:44:38.223Z,99.99
2022-09-20T06:45:38.272Z,99.99
2022-09-20T06:46:38.194Z,99.99
2022-09-20T06:47:38.942Z,99.99
2022-09-20T06:48:38.170Z,99.99
2022-09-20T06:49:38.154Z,99.99
2022-09-20T06:50:38.143Z,99.99
2022-09-20T06:51:38.130Z,99.99
2022-09-20T06:52:38.119Z,99.99
2022-09-20T06:53:38.105Z,99.99
2022-09-20T06:54:38.096Z,99.99
2022-09-20T06:55:38.084Z,99.99
2022-09-20T06:56:38.119Z,99.99
2022-09-20T06:57:38.068Z,99.99
2022-09-20T06:58:38.049Z,99.99
2022-09-20T06:59:38.034Z,99.99
2022-09-20T07:00:38.022Z,99.99
2022-09-20T07:01:38.096Z,99.99
2022-09-20T07:02:38.115Z,99.99
2022-09-20T07:03:37.983Z,99.99
2022-09-20T07:04:37.973Z,99.76
2022-09-20T07:05:37.961Z,99.99
2022-09-20T07:06:37.949Z,99.99
2022-09-20T07:07:37.936Z,98.61
2022-09-20T07:08:37.926Z,98.13
2022-09-20T07:09:37.912Z,98.13
2022-09-20T07:10:37.901Z,98.23
2022-09-20T07:11:37.888Z,98.42
2022-09-20T07:12:37.879Z,98.61
2022-09-20T07:13:37.864Z,97.47
2022-09-20T07:14:37.854Z,96.70
2022-09-20T07:15:37.841Z,97.37
2022-09-20T07:16:37.895Z,96.94
2022-09-20T07:17:37.837Z,97.42
2022-09-20T07:18:37.808Z,97.42
2022-09-20T07:19:37.795Z,96.94
2022-09-20T07:20:37.788Z,96.27
2022-09-20T07:21:37.772Z,96.08
2022-09-20T07:22:37.761Z,96.27
2022-09-20T07:23:37.749Z,95.61
2022-09-20T07:24:37.740Z,96.75
2022-09-20T07:25:37.828Z,95.89
2022-09-20T07:26:37.718Z,95.84
2022-09-20T07:27:37.710Z,95.27
2022-09-20T07:28:37.694Z,94.98
2022-09-20T07:29:37.680Z,94.98
2022-09-20T07:30:37.671Z,94.79
2022-09-20T07:31:37.719Z,95.46
2022-09-20T07:32:37.650Z,94.41
2022-09-20T07:33:37.655Z,94.31
2022-09-20T07:34:37.630Z,94.51
2022-09-20T07:35:37.614Z,94.51
2022-09-20T07:36:37.605Z,93.36
2022-09-20T07:37:37.592Z,93.45
2022-09-20T07:38:37.582Z,92.50
2022-09-20T07:39:37.571Z,94.26
2022-09-20T07:40:37.616Z,93.12
2022-09-20T07:41:37.551Z,92.74
2022-09-20T07:42:37.538Z,92.64
2022-09-20T07:43:37.525Z,92.93
2022-09-20T07:44:37.519Z,91.68
2022-09-20T07:45:37.598Z,91.78
2022-09-20T07:46:37.495Z,91.20
2022-09-20T07:49:37.483Z,90.73
2022-09-20T07:50:37.452Z,90.82
2022-09-20T07:51:37.442Z,91.97
2022-09-20T07:52:37.430Z,91.97
2022-09-20T07:53:37.420Z,92.25
2022-09-20T07:54:37.410Z,91.68
2022-09-20T07:55:37.400Z,92.25
2022-09-20T07:56:37.386Z,91.63
2022-09-20T07:57:37.377Z,92.21
2022-09-20T07:58:37.366Z,91.53
2022-09-20T07:59:37.356Z,90.58
2022-09-20T08:00:37.344Z,89.81
2022-09-20T08:01:37.336Z,90.20
2022-09-20T08:02:37.372Z,89.91
2022-09-20T08:03:37.315Z,89.15
2022-09-20T08:04:37.304Z,89.24
2022-09-20T08:05:37.313Z,89.53
2022-09-20T08:06:37.285Z,90.01
2022-09-20T08:07:37.273Z,89.24
2022-09-20T08:08:37.261Z,89.53
2022-09-20T08:09:37.303Z,88.86
2022-09-20T08:10:37.241Z,89.34
2022-09-20T08:11:37.232Z,89.58
2022-09-20T08:14:37.204Z,88.43
2022-09-20T08:15:37.196Z,89.38
2022-09-20T08:16:37.244Z,88.62
2022-09-20T08:17:37.173Z,87.76
2022-09-20T08:18:37.159Z,88.04
2022-09-20T08:19:37.151Z,88.04
2022-09-20T08:20:37.139Z,87.32
2022-09-20T08:21:37.153Z,86.51
2022-09-20T08:22:37.119Z,87.23
2022-09-20T08:23:37.110Z,87.61
2022-09-20T08:24:37.103Z,88.09
2022-09-20T08:25:37.088Z,87.03
2022-09-20T08:26:37.115Z,87.03
2022-09-20T08:27:37.070Z,86.36
2022-09-20T08:28:37.073Z,85.88
2022-09-20T08:29:37.049Z,85.41
2022-09-20T08:30:37.043Z,85.50
2022-09-20T08:31:37.304Z,85.41
2022-09-20T08:32:37.021Z,85.12
2022-09-20T08:33:37.010Z,84.74
2022-09-20T08:34:37.003Z,84.55
2022-09-20T08:35:38.403Z,85.45
2022-09-20T08:36:37.299Z,85.45
2022-09-20T08:37:36.995Z,85.45
2022-09-20T08:40:37.052Z,84.39
2022-09-20T08:41:36.933Z,84.49
2022-09-20T08:42:42.106Z,84.49
2022-09-20T08:43:36.915Z,84.11
2022-09-20T08:44:36.916Z,84.25
2022-09-20T08:45:36.908Z,83.86
2022-09-20T08:46:36.947Z,83.29
2022-09-20T08:47:36.884Z,83.00
2022-09-20T08:48:36.870Z,83.38
2022-09-20T08:49:36.858Z,83.29
2022-09-20T08:50:36.852Z,82.71
2022-09-20T08:51:36.840Z,81.66
2022-09-20T08:52:37.289Z,81.60
2022-09-20T08:53:36.842Z,81.37
2022-09-20T08:54:36.820Z,81.70
2022-09-20T08:55:37.158Z,81.51
2022-09-20T08:56:36.798Z,81.41
2022-09-20T08:57:36.789Z,81.51
2022-09-20T08:58:36.779Z,81.12
2022-09-20T08:59:36.767Z,80.74
2022-09-20T09:00:36.803Z,80.45
2022-09-20T09:01:36.755Z,80.45
2022-09-20T09:02:36.809Z,80.26
2022-09-20T09:03:36.732Z,80.16
2022-09-20T09:04:36.739Z,79.01
2022-09-20T09:05:36.713Z,79.21
2022-09-20T09:06:36.707Z,78.82
2022-09-20T09:07:36.697Z,78.53
2022-09-20T09:08:38.082Z,78.92
2022-09-20T09:09:37.739Z,78.72
2022-09-20T09:10:42.616Z,77.95
2022-09-20T09:11:36.662Z,78.44
2022-09-20T09:12:36.657Z,78.44
2022-09-20T09:13:36.644Z,77.95
2022-09-20T09:14:36.636Z,77.86
2022-09-20T09:15:36.627Z,80.83
2022-09-20T09:16:36.732Z,80.07
2022-09-20T09:17:36.608Z,81.41
2022-09-20T09:18:36.617Z,80.20
2022-09-20T09:19:36.616Z,79.82
2022-09-20T09:20:36.585Z,77.71
2022-09-20T09:21:36.574Z,75.85
2022-09-20T09:22:36.570Z,76.52
2022-09-20T09:23:36.559Z,76.04
2022-09-20T09:24:36.552Z,75.08
2022-09-20T09:25:36.568Z,75.46
2022-09-20T09:26:36.533Z,75.65
2022-09-20T09:27:36.526Z,76.23
2022-09-20T09:28:36.522Z,75.65
2022-09-20T09:29:36.510Z,75.27
2022-09-20T09:30:36.500Z,73.93
2022-09-20T09:31:36.532Z,76.48
2022-09-20T09:32:36.483Z,76.67
2022-09-20T09:33:36.473Z,78.20
2022-09-20T09:34:36.463Z,77.63
2022-09-20T09:35:36.453Z,78.11
2022-09-20T09:36:36.447Z,77.06
2022-09-20T09:37:36.434Z,76.10
2022-09-20T09:38:36.429Z,76.04
2022-09-20T09:39:36.419Z,76.23
2022-09-20T09:40:36.483Z,75.37
2022-09-20T09:41:36.420Z,74.41
2022-09-20T09:42:36.395Z,73.35
2022-09-20T09:43:36.385Z,73.35
2022-09-20T09:44:36.378Z,73.26
2022-09-20T09:45:36.464Z,75.85
2022-09-20T09:46:36.360Z,76.52
2022-09-20T09:47:36.349Z,73.74
2022-09-20T09:48:38.042Z,71.95
2022-09-20T09:49:36.635Z,72.39
2022-09-20T09:50:36.326Z,72.20
2022-09-20T09:51:36.365Z,73.20
2022-09-20T09:52:36.308Z,71.82
2022-09-20T09:53:36.297Z,72.20
2022-09-20T09:54:36.290Z,71.92
2022-09-20T09:55:36.279Z,72.20
2022-09-20T09:56:36.273Z,73.07
2022-09-20T09:57:36.287Z,73.87
2022-09-20T09:58:36.256Z,72.72
2022-09-20T09:59:36.246Z,72.05
2022-09-20T10:00:36.239Z,72.24
2022-09-20T10:01:36.288Z,72.53
2022-09-20T10:02:36.315Z,71.57
2022-09-20T10:03:36.213Z,70.70
2022-09-20T10:04:36.204Z,69.84
2022-09-20T10:05:36.193Z,70.42
2022-09-20T10:06:36.188Z,69.74
2022-09-20T10:07:36.177Z,70.32
2022-09-20T10:08:36.171Z,70.80
2022-09-20T10:09:36.159Z,71.89
2022-09-20T10:10:36.153Z,72.08
2022-09-20T10:11:36.143Z,71.51
2022-09-20T10:12:36.137Z,70.36
2022-09-20T10:13:40.313Z,69.87
2022-09-20T10:14:36.119Z,68.91
2022-09-20T10:15:36.110Z,68.53
2022-09-20T10:16:36.179Z,68.73
2022-09-20T10:17:36.100Z,68.98
2022-09-20T10:18:36.088Z,68.98
2022-09-20T10:19:36.078Z,68.69
2022-09-20T10:20:36.072Z,69.74
2022-09-20T10:21:36.060Z,69.56
2022-09-20T10:22:36.053Z,68.98
2022-09-20T10:24:01.296Z,68.44
2022-09-20T10:24:36.039Z,68.15
2022-09-20T10:25:36.028Z,68.05
2022-09-20T10:26:36.021Z,68.44
2022-09-20T10:27:36.012Z,69.78
2022-09-20T10:28:36.008Z,69.20
2022-09-20T10:29:36.015Z,70.64
2022-09-20T10:30:36.031Z,69.01
2022-09-20T10:31:36.022Z,67.00
2022-09-20T10:32:35.974Z,67.38
2022-09-20T10:33:35.962Z,67.22
2022-09-20T10:34:35.959Z,69.14
2022-09-20T10:35:35.948Z,67.80
2022-09-20T10:36:35.941Z,66.93
2022-09-20T10:37:35.980Z,65.97
2022-09-20T10:38:35.923Z,67.22
2022-09-20T10:39:35.914Z,66.74
2022-09-20T10:40:36.065Z,67.32
2022-09-20T10:41:35.899Z,67.90
2022-09-20T10:42:35.892Z,67.03
2022-09-20T10:43:35.885Z,66.58
2022-09-20T10:44:35.879Z,65.91
2022-09-20T10:46:08.316Z,64.66
2022-09-20T10:46:35.913Z,64.28
2022-09-20T10:47:35.854Z,64.18
2022-09-20T10:48:35.851Z,63.60
2022-09-20T10:49:35.837Z,63.12
2022-09-20T10:50:35.833Z,62.74
2022-09-20T10:51:35.823Z,62.00
2022-09-20T10:52:35.818Z,62.00
2022-09-20T10:53:35.807Z,61.04
2022-09-20T10:54:35.806Z,61.04
2022-09-20T10:55:35.793Z,61.33
2022-09-20T10:56:35.788Z,61.94
2022-09-20T10:57:35.781Z,62.32
2022-09-20T10:58:35.772Z,63.06
2022-09-20T10:59:35.764Z,62.19
2022-09-20T11:00:35.760Z,62.00
2022-09-20T11:01:35.938Z,61.46
2022-09-20T11:02:35.849Z,62.03
2022-09-20T11:03:35.736Z,62.90
2022-09-20T11:04:35.730Z,62.03
2022-09-20T11:05:35.720Z,62.03
2022-09-20T11:06:35.716Z,61.58
2022-09-20T11:07:35.709Z,61.58
2022-09-20T11:08:35.703Z,61.29
2022-09-20T11:09:35.699Z,61.39
2022-09-20T11:10:35.690Z,59.94
2022-09-20T11:11:35.681Z,59.27
2022-09-20T11:12:35.676Z,58.70
2022-09-20T11:13:35.680Z,58.50
2022-09-20T11:14:35.663Z,59.24
2022-09-20T11:15:35.659Z,60.39
2022-09-20T11:16:35.706Z,60.46
2022-09-20T11:17:35.689Z,60.85
2022-09-20T11:18:35.642Z,61.23
2022-09-20T11:19:35.631Z,61.46
2022-09-20T11:20:35.627Z,61.65
2022-09-20T11:21:35.616Z,61.46
2022-09-20T11:22:35.613Z,62.13
2022-09-20T11:23:35.605Z,61.43
2022-09-20T11:24:35.599Z,61.71
2022-09-20T11:25:35.588Z,64.02
2022-09-20T11:26:35.584Z,63.64
2022-09-20T11:27:35.576Z,63.64
2022-09-20T11:28:35.573Z,64.22
2022-09-20T11:29:35.606Z,64.40
2022-09-20T11:30:35.558Z,64.60
2022-09-20T11:31:35.622Z,64.31
2022-09-20T11:32:35.545Z,64.28
2022-09-20T11:33:39.331Z,65.94
2022-09-20T11:34:35.532Z,65.08
2022-09-20T11:35:35.523Z,64.37
2022-09-20T11:36:35.521Z,64.37
2022-09-20T11:37:35.508Z,63.79
2022-09-20T11:38:35.504Z,63.70
2022-09-20T11:39:35.498Z,63.70
2022-09-20T11:40:35.573Z,63.60
2022-09-20T11:41:35.481Z,64.43
2022-09-20T11:42:35.476Z,64.82
2022-09-20T11:43:35.469Z,67.22
2022-09-20T11:44:35.463Z,67.25
2022-09-20T11:45:35.489Z,68.12
2022-09-20T11:46:35.448Z,67.45
2022-09-20T11:47:54.027Z,65.62
2022-09-20T11:48:35.435Z,68.51
2022-09-20T11:49:35.444Z,67.16
2022-09-20T11:50:35.424Z,64.18
2022-09-20T11:51:35.412Z,63.70
2022-09-20T11:52:35.423Z,65.53
2022-09-20T11:53:36.959Z,64.60
2022-09-20T11:54:35.448Z,65.37
2022-09-20T11:55:35.382Z,64.98
2022-09-20T11:56:35.378Z,65.37
2022-09-20T11:57:35.368Z,63.35
2022-09-20T11:58:35.363Z,63.25
2022-09-20T11:59:35.355Z,63.64
2022-09-20T12:00:35.356Z,63.25
2022-09-20T12:01:35.342Z,62.10
2022-09-20T12:02:35.529Z,62.55
2022-09-20T12:03:35.396Z,62.26
2022-09-20T12:04:35.853Z,62.84
2022-09-20T12:05:35.339Z,64.50
2022-09-20T12:06:35.309Z,65.72
2022-09-20T12:07:35.297Z,69.07
2022-09-20T12:08:35.294Z,68.63
2022-09-20T12:09:35.283Z,67.19
2022-09-20T12:10:35.286Z,67.00
2022-09-20T12:11:35.269Z,68.53
2022-09-20T12:12:35.264Z,69.11
2022-09-20T12:13:35.256Z,67.76
2022-09-20T12:14:35.249Z,66.74
2022-09-20T12:15:35.239Z,66.64
2022-09-20T12:16:35.281Z,67.70
2022-09-20T12:17:35.229Z,68.76
2022-09-20T12:18:35.221Z,67.51
2022-09-20T12:19:35.215Z,68.66
2022-09-20T12:20:35.206Z,67.16
2022-09-20T12:21:35.210Z,66.68
2022-09-20T12:22:35.192Z,66.10
2022-09-20T12:23:35.180Z,65.05
2022-09-20T12:24:35.175Z,64.76
2022-09-20T12:25:35.163Z,64.31
2022-09-20T12:26:35.158Z,63.64
2022-09-20T12:27:35.151Z,63.92
2022-09-20T12:28:35.149Z,63.67
2022-09-20T12:29:35.134Z,64.25
2022-09-20T12:30:35.131Z,63.48
2022-09-20T12:31:35.150Z,62.51
2022-09-20T12:32:35.114Z,63.95
2022-09-20T12:33:35.106Z,62.29
2022-09-20T12:34:35.155Z,61.71
2022-09-20T12:35:35.105Z,61.43
2022-09-20T12:36:35.088Z,62.77
2022-09-20T12:37:35.097Z,61.94
2022-09-20T12:38:35.073Z,63.28
2022-09-20T12:39:35.068Z,63.95
2022-09-20T12:40:35.089Z,60.53
2022-09-20T12:41:35.103Z,60.82
2022-09-20T12:42:35.043Z,61.49
2022-09-20T12:43:35.040Z,62.52
2022-09-20T12:44:35.031Z,63.28
2022-09-20T12:45:35.114Z,63.28
2022-09-20T12:46:35.016Z,64.15
2022-09-20T12:47:35.009Z,66.07
2022-09-20T12:48:35.000Z,66.74
2022-09-20T12:49:34.999Z,67.32
2022-09-20T12:50:34.986Z,65.62
2022-09-20T12:51:34.980Z,65.20
2022-09-20T12:52:34.972Z,67.13
2022-09-20T12:53:35.004Z,67.03
2022-09-20T12:54:34.957Z,65.40
2022-09-20T12:55:34.952Z,65.08
2022-09-20T12:56:34.991Z,66.03
2022-09-20T12:57:34.938Z,68.82
2022-09-20T12:58:34.927Z,69.87
2022-09-20T12:59:34.922Z,67.29